createdAt,value
2019-04-20T00:02:22.129Z,7.97
2019-04-20T00:04:51.414Z,7.53
2019-04-20T00:07:24.689Z,10.40
2019-04-20T00:10:00.467Z,4.70
2019-04-20T00:12:36.788Z,4.90
2019-04-20T00:14:54.276Z,6.47
2019-04-20T00:17:25.054Z,4.40
2019-04-20T00:19:57.736Z,4.63
2019-04-20T00:22:41.038Z,6.47
2019-04-20T00:25:53.481Z,6.07
2019-04-20T00:28:31.592Z,8.50
2019-04-20T00:31:04.626Z,5.47
2019-04-20T00:33:27.021Z,5.60
2019-04-20T00:35:44.372Z,5.70
2019-04-20T00:38:14.004Z,6.17
2019-04-20T00:40:43.456Z,9.67
2019-04-20T00:43:19.537Z,5.07
2019-04-20T00:45:54.292Z,6.33
2019-04-20T00:48:22.683Z,13.53
2019-04-20T00:50:59.289Z,9.60
2019-04-20T00:53:25.962Z,6.70
2019-04-20T00:55:48.544Z,6.23
2019-04-20T00:58:27.587Z,6.93
2019-04-20T01:01:17.184Z,7.70
2019-04-20T01:03:33.994Z,7.70
2019-04-20T01:06:22.262Z,6.93
2019-04-20T01:08:44.347Z,6.97
2019-04-20T01:11:16.666Z,6.57
2019-04-20T01:13:50.485Z,6.10
2019-04-20T01:16:25.220Z,16.73
2019-04-20T01:18:47.112Z,10.63
2019-04-20T01:21:21.564Z,9.30
2019-04-20T01:23:53.076Z,10.00
2019-04-20T01:26:22.249Z,5.97
2019-04-20T01:29:04.238Z,6.00
2019-04-20T01:31:29.305Z,8.40
2019-04-20T01:34:00.663Z,13.90
2019-04-20T01:36:43.137Z,9.07
2019-04-20T01:39:09.443Z,6.60
2019-04-20T01:41:26.434Z,8.90
2019-04-20T01:43:56.335Z,7.37
2019-04-20T01:46:28.317Z,9.57
2019-04-20T01:48:59.991Z,10.57
2019-04-20T01:51:32.493Z,6.43
2019-04-20T01:54:23.444Z,6.93
2019-04-20T01:56:52.027Z,8.80
2019-04-20T01:59:35.971Z,8.33
2019-04-20T02:02:15.233Z,6.50
2019-04-20T02:04:48.760Z,9.33
2019-04-20T02:07:18.466Z,9.07
2019-04-20T02:09:53.518Z,9.57
2019-04-20T02:12:24.398Z,9.20
2019-04-20T02:14:55.646Z,13.50
2019-04-20T02:17:30.088Z,8.93
2019-04-20T02:20:17.390Z,6.77
2019-04-20T02:22:59.052Z,6.30
2019-04-20T02:25:27.056Z,8.90
2019-04-20T02:28:14.804Z,7.97
2019-04-20T02:31:11.068Z,7.97
2019-04-20T02:33:47.287Z,9.67
2019-04-20T02:47:14.892Z,13.90
2019-04-20T02:54:50.840Z,10.63
2019-04-20T03:00:19.406Z,10.30
2019-04-20T03:02:55.910Z,9.13
2019-04-20T03:05:28.094Z,12.20
2019-04-20T03:08:05.660Z,14.73
2019-04-20T03:10:50.617Z,10.00
2019-04-20T03:13:15.860Z,9.27
2019-04-20T03:16:00.158Z,7.10
2019-04-20T03:18:48.505Z,18.77
2019-04-20T03:21:24.779Z,8.83
2019-04-20T03:23:59.932Z,8.90
2019-04-20T03:26:20.990Z,8.40
2019-04-20T03:29:15.997Z,7.57
2019-04-20T03:32:56.073Z,9.93
2019-04-20T03:37:28.140Z,10.20
2019-04-20T03:40:05.498Z,11.57
2019-04-20T03:42:39.988Z,14.00
2019-04-20T03:45:20.084Z,15.20
2019-04-20T03:48:00.680Z,11.67
2019-04-20T03:50:48.845Z,8.37
2019-04-20T03:53:19.993Z,8.67
2019-04-20T03:56:02.188Z,8.93
2019-04-20T03:59:03.189Z,7.87
2019-04-20T04:02:14.625Z,7.30
2019-04-20T04:04:51.756Z,7.63
2019-04-20T04:07:08.049Z,8.73
2019-04-20T04:10:04.593Z,6.97
2019-04-20T04:12:58.784Z,8.60
2019-04-20T04:15:29.632Z,10.80
2019-04-20T04:18:08.876Z,7.90
2019-04-20T04:20:43.015Z,7.13
2019-04-20T04:23:24.622Z,6.53
2019-04-20T04:26:00.354Z,6.43
2019-04-20T04:28:28.709Z,6.13
2019-04-20T04:31:04.129Z,11.70
2019-04-20T04:33:52.214Z,7.57
2019-04-20T04:36:00.638Z,7.50
2019-04-20T04:38:37.683Z,5.27
2019-04-20T04:41:17.085Z,8.10
2019-04-20T04:43:39.963Z,9.60
2019-04-20T04:45:53.297Z,6.27
2019-04-20T04:48:29.929Z,6.77
2019-04-20T04:51:02.460Z,5.90
2019-04-20T04:53:40.827Z,3.67
2019-04-20T04:56:04.871Z,7.00
2019-04-20T04:58:29.689Z,6.20
2019-04-20T05:01:12.676Z,7.70
2019-04-20T05:04:28.997Z,10.83
2019-04-20T05:06:41.447Z,6.27
2019-04-20T05:09:00.208Z,6.67
2019-04-20T05:11:27.916Z,6.73
2019-04-20T05:14:03.236Z,10.20
2019-04-20T05:17:07.794Z,8.17
2019-04-20T05:19:41.210Z,6.77
2019-04-20T05:22:32.242Z,7.57
2019-04-20T05:25:07.110Z,4.97
2019-04-20T05:27:51.175Z,6.23
2019-04-20T05:30:03.683Z,9.03
2019-04-20T05:32:44.889Z,6.83
2019-04-20T05:35:27.210Z,9.70
2019-04-20T05:38:06.615Z,8.93
2019-04-20T05:40:32.777Z,6.60
2019-04-20T05:43:20.618Z,7.50
2019-04-20T05:46:19.526Z,6.80
2019-04-20T05:48:50.899Z,10.40
2019-04-20T05:51:29.791Z,7.90
2019-04-20T05:53:59.198Z,8.53
2019-04-20T05:56:31.681Z,8.93
2019-04-20T05:58:56.948Z,7.20
2019-04-20T06:02:09.696Z,7.37
2019-04-20T06:04:46.364Z,8.50
2019-04-20T06:07:12.427Z,7.23
2019-04-20T06:09:42.338Z,5.20
2019-04-20T06:15:04.097Z,4.87
2019-04-20T06:18:05.161Z,5.93
2019-04-20T06:20:41.100Z,5.37
2019-04-20T06:23:33.800Z,6.60
2019-04-20T06:26:21.184Z,5.77
2019-04-20T06:28:27.986Z,7.83
2019-04-20T06:31:26.470Z,5.27
2019-04-20T06:37:23.471Z,5.20
2019-04-20T06:40:25.366Z,8.77
2019-04-20T06:42:41.101Z,5.50
2019-04-20T06:45:20.230Z,3.87
2019-04-20T06:47:46.136Z,4.87
2019-04-20T06:50:18.482Z,5.13
2019-04-20T06:53:18.796Z,4.20
2019-04-20T06:55:48.611Z,25.47
2019-04-20T06:58:38.169Z,3.83
2019-04-20T07:01:07.757Z,5.53
2019-04-20T07:04:10.845Z,6.87
2019-04-20T07:06:54.957Z,3.43
2019-04-20T07:09:35.004Z,3.27
2019-04-20T07:11:50.381Z,5.20
2019-04-20T07:14:32.914Z,11.50
2019-04-20T07:17:47.278Z,15.63
2019-04-20T07:20:03.013Z,4.00
2019-04-20T07:23:09.453Z,6.70
2019-04-20T07:25:48.849Z,8.60
2019-04-20T07:28:35.555Z,2.93
2019-04-20T07:31:02.843Z,4.00
2019-04-20T07:33:52.128Z,3.50
2019-04-20T07:36:30.630Z,5.80
2019-04-20T07:39:04.316Z,4.43
2019-04-20T07:41:54.597Z,4.10
2019-04-20T07:44:28.137Z,3.63
2019-04-20T07:47:16.660Z,4.07
2019-04-20T07:49:45.781Z,4.30
2019-04-20T07:52:01.768Z,6.30
2019-04-20T07:55:26.288Z,4.20
2019-04-20T07:57:53.866Z,8.23
2019-04-20T08:00:48.643Z,4.47
2019-04-20T08:03:38.146Z,9.30
2019-04-20T08:06:38.054Z,5.17
2019-04-20T08:09:14.717Z,4.00
2019-04-20T08:11:55.229Z,4.93
2019-04-20T08:14:42.533Z,3.23
2019-04-20T08:17:30.336Z,6.83
2019-04-20T08:19:45.702Z,3.30
2019-04-20T08:22:26.663Z,2.73
2019-04-20T08:25:08.789Z,4.30
2019-04-20T08:28:20.858Z,5.10
2019-04-20T08:31:08.871Z,4.70
2019-04-20T08:34:32.371Z,7.57
2019-04-20T08:37:02.934Z,4.70
2019-04-20T08:39:46.418Z,7.17
2019-04-20T08:42:07.458Z,3.93
2019-04-20T08:47:37.805Z,3.30
2019-04-20T08:55:23.527Z,3.60
2019-04-20T08:57:39.858Z,5.17
2019-04-20T09:00:13.402Z,6.27
2019-04-20T09:03:09.414Z,5.30
2019-04-20T09:05:52.529Z,3.83
2019-04-20T09:08:26.034Z,3.03
2019-04-20T09:11:41.860Z,2.87
2019-04-20T09:14:21.303Z,2.80
2019-04-20T09:17:04.877Z,7.03
2019-04-20T09:19:54.869Z,3.33
2019-04-20T09:23:02.310Z,3.60
2019-04-20T09:28:18.699Z,3.93
2019-04-20T09:31:20.095Z,2.87
2019-04-20T09:34:18.193Z,10.20
2019-04-20T09:37:29.660Z,3.10
2019-04-20T09:40:21.284Z,3.80
2019-04-20T09:42:57.449Z,3.63
2019-04-20T09:45:49.013Z,7.50
2019-04-20T09:48:25.220Z,2.77
2019-04-20T09:51:24.801Z,2.90
2019-04-20T09:54:25.657Z,3.63
2019-04-20T09:57:09.412Z,8.20
2019-04-20T09:59:37.239Z,4.43
2019-04-20T10:02:23.186Z,12.57
2019-04-20T10:05:07.307Z,2.33
2019-04-20T10:07:37.723Z,2.70
2019-04-20T10:10:28.763Z,9.03
2019-04-20T10:13:00.540Z,3.30
2019-04-20T10:15:33.525Z,2.70
2019-04-20T10:18:10.028Z,2.90
2019-04-20T10:20:42.272Z,10.70
2019-04-20T10:23:32.488Z,2.40
2019-04-20T10:26:02.743Z,3.83
2019-04-20T10:28:39.477Z,4.20
2019-04-20T10:31:16.784Z,3.60
2019-04-20T10:33:55.604Z,4.50
2019-04-20T10:37:06.958Z,6.90
2019-04-20T10:39:40.513Z,4.00
2019-04-20T10:42:10.146Z,6.33
2019-04-20T10:44:40.892Z,8.13
2019-04-20T10:47:37.125Z,2.33
2019-04-20T10:50:07.135Z,5.63
2019-04-20T10:52:59.675Z,11.43
2019-04-20T10:55:49.182Z,7.93
2019-04-20T10:58:41.744Z,4.50
2019-04-20T11:01:15.687Z,2.43
2019-04-20T11:03:50.279Z,7.80
2019-04-20T11:06:38.759Z,2.93
2019-04-20T11:09:18.403Z,3.90
2019-04-20T11:12:08.357Z,3.33
2019-04-20T11:14:41.892Z,4.10
2019-04-20T11:17:24.586Z,6.83
2019-04-20T11:19:59.101Z,6.30
2019-04-20T11:22:28.530Z,4.10
2019-04-20T11:25:16.990Z,5.90
2019-04-20T11:27:46.325Z,12.60
2019-04-20T11:30:22.403Z,5.33
2019-04-20T11:33:00.242Z,3.83
2019-04-20T11:35:39.537Z,6.93
2019-04-20T11:38:10.750Z,5.00
2019-04-20T11:41:04.174Z,5.10
2019-04-20T11:43:31.486Z,4.73
2019-04-20T11:46:04.705Z,4.73
2019-04-20T11:48:39.394Z,3.07
2019-04-20T11:51:11.660Z,4.37
2019-04-20T11:53:50.250Z,5.83
2019-04-20T11:56:33.378Z,3.87
2019-04-20T11:59:14.769Z,6.93
2019-04-20T12:02:05.813Z,3.93
2019-04-20T12:05:07.556Z,4.70
2019-04-20T12:07:43.115Z,5.27
2019-04-20T12:10:20.945Z,3.77
2019-04-20T12:13:05.987Z,4.90
2019-04-20T12:15:38.908Z,6.93
2019-04-20T12:18:31.676Z,5.30
2019-04-20T12:21:08.852Z,4.40
2019-04-20T12:23:40.382Z,5.13
2019-04-20T12:26:11.192Z,5.83
2019-04-20T12:28:40.488Z,2.60
2019-04-20T12:31:29.394Z,4.27
2019-04-20T12:34:12.690Z,8.93
2019-04-20T12:36:42.829Z,3.97
2019-04-20T12:39:13.219Z,4.93
2019-04-20T12:41:56.483Z,4.27
2019-04-20T12:44:21.920Z,4.03
2019-04-20T12:47:10.408Z,2.70
2019-04-20T12:50:05.442Z,5.07
2019-04-20T12:53:09.095Z,3.70
2019-04-20T12:55:58.612Z,5.50
2019-04-20T12:58:28.422Z,4.13
2019-04-20T13:01:33.284Z,2.70
2019-04-20T13:04:04.512Z,5.57
2019-04-20T13:06:34.417Z,2.53
2019-04-20T13:09:10.537Z,7.00
2019-04-20T13:12:10.610Z,6.47
2019-04-20T13:15:08.934Z,3.87
2019-04-20T13:17:38.136Z,3.83
2019-04-20T13:20:12.325Z,5.10
2019-04-20T13:22:57.197Z,6.20
2019-04-20T13:25:46.598Z,4.00
2019-04-20T13:28:16.920Z,4.60
2019-04-20T13:30:46.325Z,10.43
2019-04-20T13:33:51.245Z,5.93
2019-04-20T13:36:44.164Z,5.30
2019-04-20T13:39:14.275Z,14.53
2019-04-20T13:42:21.153Z,13.03
2019-04-20T13:44:47.073Z,4.00
2019-04-20T13:47:16.904Z,3.50
2019-04-20T13:49:49.239Z,3.80
2019-04-20T13:52:38.484Z,4.50
2019-04-20T13:55:12.770Z,10.30
2019-04-20T13:58:02.142Z,6.20
2019-04-20T14:01:18.898Z,3.07
2019-04-20T14:04:08.517Z,5.73
2019-04-20T14:06:57.892Z,7.80
2019-04-20T14:09:43.887Z,4.63
2019-04-20T14:12:23.293Z,6.17
2019-04-20T14:14:48.846Z,6.17
2019-04-20T14:17:19.168Z,6.23
2019-04-20T14:20:13.390Z,4.50
2019-04-20T14:22:54.719Z,3.47
2019-04-20T14:25:24.885Z,2.70
2019-04-20T14:27:57.961Z,6.90
2019-04-20T14:30:27.255Z,4.20
2019-04-20T14:33:01.015Z,3.37
2019-04-20T14:35:34.650Z,6.93
2019-04-20T14:38:05.914Z,5.87
2019-04-20T14:40:36.560Z,4.10
2019-04-20T14:43:25.124Z,9.13
2019-04-20T14:45:54.644Z,3.70
2019-04-20T14:48:24.903Z,5.80
2019-04-20T14:50:54.288Z,7.90
2019-04-20T14:53:25.390Z,4.73
2019-04-20T14:55:55.585Z,6.97
2019-04-20T14:59:02.299Z,4.37
2019-04-20T15:01:40.862Z,3.50
2019-04-20T15:04:16.696Z,7.17
2019-04-20T15:06:42.402Z,4.63
2019-04-20T15:09:12.836Z,5.57
2019-04-20T15:11:43.435Z,6.73
2019-04-20T15:14:14.456Z,4.57
2019-04-20T15:16:44.588Z,6.97
2019-04-20T15:19:48.041Z,5.20
2019-04-20T15:22:39.237Z,2.90
2019-04-20T15:25:09.595Z,4.90
2019-04-20T15:27:42.521Z,6.70
2019-04-20T15:30:10.365Z,4.80
2019-04-20T15:32:40.888Z,4.77
2019-04-20T15:35:11.110Z,3.83
2019-04-20T15:37:41.283Z,5.17
2019-04-20T15:40:12.976Z,5.23
2019-04-20T15:42:51.499Z,3.07
2019-04-20T15:45:13.624Z,6.63
2019-04-20T15:47:43.776Z,4.97
2019-04-20T15:50:13.855Z,6.80
2019-04-20T15:52:49.482Z,5.60
2019-04-20T15:55:21.684Z,6.70
2019-04-20T15:57:45.545Z,5.33
2019-04-20T16:00:16.286Z,3.23
2019-04-20T16:02:53.665Z,5.50
2019-04-20T16:05:53.755Z,6.67
2019-04-20T16:08:34.580Z,3.47
2019-04-20T16:11:04.920Z,6.97
2019-04-20T16:13:39.521Z,5.37
2019-04-20T16:16:06.097Z,8.23
2019-04-20T16:18:37.106Z,4.60
2019-04-20T16:21:13.212Z,9.97
2019-04-20T16:23:54.933Z,5.33
2019-04-20T16:26:47.431Z,12.07
2019-04-20T16:29:17.688Z,7.33
2019-04-20T16:31:48.543Z,29.77
2019-04-20T16:34:19.254Z,6.40
2019-04-20T16:36:51.422Z,65.60
2019-04-20T16:39:20.477Z,34.63
2019-04-20T16:41:50.687Z,9.53
2019-04-20T16:44:21.053Z,9.07
2019-04-20T16:46:50.383Z,5.47
2019-04-20T16:49:21.182Z,12.53
2019-04-20T16:51:50.654Z,3.93
2019-04-20T16:54:21.653Z,6.23
2019-04-20T16:56:51.108Z,3.73
2019-04-20T16:59:21.247Z,3.80
2019-04-20T17:01:51.446Z,3.97
2019-04-20T17:04:22.983Z,4.50
2019-04-20T17:07:29.119Z,3.27
2019-04-20T17:09:58.406Z,3.97
2019-04-20T17:12:28.098Z,5.50
2019-04-20T17:14:57.844Z,3.10
2019-04-20T17:17:27.440Z,4.43
2019-04-20T17:19:58.186Z,6.53
2019-04-20T17:22:27.655Z,6.30
2019-04-20T17:24:58.173Z,10.97
2019-04-20T17:27:46.808Z,5.27
2019-04-20T17:30:55.051Z,3.63
2019-04-20T17:33:30.186Z,4.40
2019-04-20T17:36:08.433Z,30.70
2019-04-20T17:38:37.678Z,9.73
2019-04-20T17:41:16.767Z,6.60
2019-04-20T17:43:49.638Z,8.27
2019-04-20T17:46:12.081Z,8.90
2019-04-20T17:48:45.234Z,6.60
2019-04-20T17:51:29.089Z,3.60
2019-04-20T17:54:06.459Z,6.17
2019-04-20T17:56:40.259Z,11.67
2019-04-20T17:59:10.326Z,3.33
2019-04-20T18:02:16.776Z,5.13
2019-04-20T18:05:08.417Z,6.27
2019-04-20T18:07:36.623Z,3.70
2019-04-20T18:10:02.974Z,7.17
2019-04-20T18:12:26.100Z,12.20
2019-04-20T18:14:59.652Z,3.17
2019-04-20T18:17:55.054Z,3.13
2019-04-20T18:20:14.829Z,3.10
2019-04-20T18:22:50.498Z,3.73
2019-04-20T18:25:49.957Z,6.30
2019-04-20T18:28:05.607Z,7.63
2019-04-20T18:30:43.689Z,3.10
2019-04-20T18:33:09.510Z,6.07
2019-04-20T18:35:43.382Z,9.40
2019-04-20T18:38:14.638Z,170.13
2019-04-20T18:40:51.354Z,22.33
2019-04-20T18:43:16.818Z,60.53
2019-04-20T18:46:03.727Z,74.20
2019-04-20T18:48:37.902Z,41.40
2019-04-20T18:50:47.362Z,214.90
2019-04-20T18:53:23.822Z,571.43
2019-04-20T18:55:52.867Z,340.67
2019-04-20T18:58:17.736Z,71.00
2019-04-20T19:00:51.230Z,37.93
2019-04-20T19:03:25.764Z,62.40
2019-04-20T19:05:49.605Z,19.30
2019-04-20T19:08:24.610Z,12.43
2019-04-20T19:10:57.598Z,38.80
2019-04-20T19:13:34.228Z,31.67
2019-04-20T19:16:27.566Z,18.70
2019-04-20T19:19:11.072Z,13.87
2019-04-20T19:21:31.169Z,8.33
2019-04-20T19:24:07.635Z,14.70
2019-04-20T19:26:32.193Z,81.37
2019-04-20T19:29:12.092Z,18.10
2019-04-20T19:31:45.804Z,38.30
2019-04-20T19:34:18.860Z,62.30
2019-04-20T19:36:41.440Z,12.60
2019-04-20T19:39:21.346Z,12.57
2019-04-20T19:41:49.033Z,7.37
2019-04-20T19:44:18.917Z,8.50
2019-04-20T19:47:01.636Z,5.63
2019-04-20T19:49:26.261Z,55.53
2019-04-20T19:52:13.255Z,9.97
2019-04-20T19:54:34.524Z,3.00
2019-04-20T19:56:58.533Z,4.73
2019-04-20T19:59:26.116Z,4.53
2019-04-20T20:01:47.644Z,6.77
2019-04-20T20:04:17.573Z,6.57
2019-04-20T20:06:51.907Z,4.70
2019-04-20T20:09:18.722Z,5.83
2019-04-20T20:11:49.973Z,13.43
2019-04-20T20:14:29.239Z,11.20
2019-04-20T20:17:10.139Z,8.70
2019-04-20T20:19:37.153Z,13.67
2019-04-20T20:22:06.817Z,7.20
2019-04-20T20:24:23.541Z,9.73
2019-04-20T20:27:00.397Z,9.83
2019-04-20T20:29:33.449Z,6.20
2019-04-20T20:32:05.257Z,8.00
2019-04-20T20:34:35.518Z,8.63
2019-04-20T20:37:00.450Z,7.37
2019-04-20T20:39:31.658Z,6.80
2019-04-20T20:42:10.908Z,11.43
2019-04-20T20:44:41.121Z,13.43
2019-04-20T20:47:29.878Z,10.00
2019-04-20T20:49:56.868Z,22.60
2019-04-20T20:52:24.424Z,22.73
2019-04-20T20:54:45.919Z,22.63
2019-04-20T20:57:11.366Z,14.63
2019-04-20T20:59:47.966Z,10.30
2019-04-20T21:02:15.832Z,20.87
2019-04-20T21:04:39.474Z,17.03
2019-04-20T21:07:09.011Z,24.30
2019-04-20T21:09:39.508Z,22.33
2019-04-20T21:12:13.961Z,17.00
2019-04-20T21:14:42.105Z,7.80
2019-04-20T21:17:17.777Z,11.93
2019-04-20T21:19:57.962Z,10.03
2019-04-20T21:22:22.196Z,8.00
2019-04-20T21:24:49.860Z,12.50
2019-04-20T21:27:21.482Z,15.83
2019-04-20T21:29:52.569Z,49.63
2019-04-20T21:32:22.042Z,30.53
2019-04-20T21:34:55.612Z,14.87
2019-04-20T21:37:24.019Z,8.73
2019-04-20T21:39:57.962Z,9.30
2019-04-20T21:42:26.695Z,5.60
2019-04-20T21:45:04.433Z,8.60
2019-04-20T21:47:32.460Z,19.47
2019-04-20T21:50:15.653Z,8.30
2019-04-20T21:52:36.221Z,13.13
2019-04-20T21:55:00.367Z,22.20
2019-04-20T21:57:32.502Z,7.80
2019-04-20T22:00:10.217Z,7.90
2019-04-20T22:02:37.724Z,7.27
2019-04-20T22:05:05.263Z,8.57
2019-04-20T22:07:34.670Z,8.00
2019-04-20T22:10:04.986Z,5.13
2019-04-20T22:12:39.774Z,6.27
2019-04-20T22:15:17.614Z,4.57
2019-04-20T22:17:38.058Z,8.17
2019-04-20T22:20:20.089Z,4.70
2019-04-20T22:22:56.134Z,3.53
2019-04-20T22:25:28.385Z,4.20
2019-04-20T22:27:42.160Z,5.10
2019-04-20T22:30:12.265Z,5.60
2019-04-20T22:32:43.248Z,8.97
2019-04-20T22:35:15.634Z,7.87
2019-04-20T22:37:59.766Z,6.70
2019-04-20T22:40:31.351Z,6.67
2019-04-20T22:43:00.547Z,6.20
2019-04-20T22:45:29.673Z,5.87
2019-04-20T22:48:04.422Z,6.77
2019-04-20T22:50:42.294Z,6.10
2019-04-20T22:53:19.029Z,14.63
2019-04-20T22:55:55.129Z,5.17
2019-04-20T22:58:21.162Z,4.67
2019-04-20T23:00:43.085Z,5.60
2019-04-20T23:03:05.045Z,15.07
2019-04-20T23:05:34.572Z,6.03
2019-04-20T23:08:04.576Z,6.33
2019-04-20T23:10:38.751Z,7.20
2019-04-20T23:13:05.344Z,7.17
2019-04-20T23:15:34.713Z,6.30
2019-04-20T23:18:04.276Z,8.60
2019-04-20T23:20:36.149Z,6.93
2019-04-20T23:23:05.045Z,11.63
2019-04-20T23:25:35.225Z,6.70
2019-04-20T23:28:10.111Z,10.07
2019-04-20T23:30:39.327Z,7.47
2019-04-20T23:33:07.828Z,8.80
2019-04-20T23:35:42.638Z,5.93
2019-04-20T23:38:13.921Z,12.70
2019-04-20T23:40:39.680Z,10.20
2019-04-20T23:43:18.889Z,9.73
2019-04-20T23:46:20.936Z,14.97
2019-04-20T23:49:07.498Z,7.93
2019-04-20T23:51:53.808Z,10.40
2019-04-20T23:54:12.935Z,8.90
2019-04-20T23:56:37.511Z,9.40
2019-04-20T23:59:08.538Z,7.37
